• Join FlightAware (Why Join?)
  • Login
  • US Flag 
12:59AM EDT


 

Airport Tracker/Info


-or-


 

Live Flight TrackerFlight Track Log ✈ BVN7571 ✈ 08-May-2013 ✈ KEAR - KOMA

Flight Track Log - Related Links

Times and Time Zones

All times are in EDT time to prevent confusion due to time zone crossing. See the BVN7571 flight status page for this flight to view local times or setup timezone preferences in your user account.

Time Position Orientation Groundspeed Altitude Reporting Facility
EDT Latitude Longitude Course Direction KTS MPH feet Rate Location/Type
08:05PM 40.7283 -98.8956 76° East 124 143 4,800  Level Minneapolis Center
08:06PM 40.7375 -98.8444 77° East 122 140 5,700 780 Climbing Minneapolis Center
08:07PM 40.7467 -98.8000 75° East 123 142 6,500 660 Climbing Minneapolis Center
08:08PM 40.7556 -98.7561 75° East 124 143 7,100 240 Climbing Minneapolis Center
08:09PM 40.7653 -98.7053 76° East 131 151 7,100 -60 Level Minneapolis Center
08:10PM 40.7783 -98.6375 76° East 147 169 7,000  Descending Minneapolis Center
08:11PM 40.7941 -98.6431 76° East  Level FlightAware Approximate
08:11PM 40.7900 -98.5833 74° East 152 175 7,100  Level Minneapolis Center
08:12PM 40.8017 -98.5306 74° East 151 174 7,100  Level Minneapolis Center
08:14PM 40.8122 -98.4769 75° East 151 174 7,100 -60 Level Minneapolis Center
08:15PM 40.8242 -98.4108 77° East 153 176 7,000  Descending Minneapolis Center
08:16PM 40.8356 -98.3564 75° East 154 177 7,100  Climbing Minneapolis Center
08:17PM 40.8478 -98.2917 76° East 153 176 7,100 -60 Level Minneapolis Center
08:18PM 40.8586 -98.2369 75° East 153 176 7,000 -60 Descending Minneapolis Center
08:19PM 40.8683 -98.1933 74° East 154 177 7,000  Level Minneapolis Center
08:20PM 40.8811 -98.1272 76° East 154 177 7,100  Climbing Minneapolis Center
08:21PM 40.8917 -98.0719 76° East 155 178 7,100  Level Minneapolis Center
08:22PM 40.9042 -98.0147 74° East 159 183 7,100 -60 Level Minneapolis Center
08:23PM 40.9192 -97.9339 76° East 162 186 7,000 -60 Descending Minneapolis Center
08:24PM 40.9300 -97.8747 76° East 164 189 7,000  Level Minneapolis Center
08:25PM 40.9431 -97.8178 73° East 163 188 7,000  Level Minneapolis Center
08:26PM 40.9531 -97.7603 77° East 162 186 7,100  Climbing Minneapolis Center
08:27PM 40.9653 -97.6942 76° East 163 188 7,100  Level Minneapolis Center
08:28PM 40.9758 -97.6428 75° East 165 190 7,100  Level Minneapolis Center
08:29PM 40.9592 -97.6131 127° Southeast 164 189 7,100  Level Minneapolis Center
08:29PM 40.9903 -97.5736 44° Northeast 163 188 7,100  Level Minneapolis Center
08:30PM 40.9775 -97.5231 108° East 165 190 7,100  Level Minneapolis Center
08:31PM 40.9875 -97.4728 75° East 166 191 7,100 -180 Level Minneapolis Center
08:31PM 41.0131 -97.4547 28° Northeast 166 191 6,900 -720 Descending Minneapolis Center
08:32PM 41.0008 -97.4108 110° East 179 206 6,400 -720 Descending Minneapolis Center
08:32PM 41.0233 -97.3867 39° Northeast 183 211 6,200 -540 Descending Minneapolis Center
08:33PM 41.0178 -97.3347 98° East 189 217 5,800 -540 Descending Minneapolis Center
08:34PM 41.0406 -97.3150 33° Northeast 184 212 5,700 -480 Descending Minneapolis Center
08:34PM 41.0328 -97.2669 102° East 181 208 5,300 -540 Descending Minneapolis Center
08:35PM 41.0539 -97.2506 30° Northeast 183 211 5,100 -240 Descending Minneapolis Center
08:35PM 41.0442 -97.2081 107° East 178 205 5,100  Level Minneapolis Center
08:36PM 41.0678 -97.1756 46° Northeast 175 201 5,100  Level Minneapolis Center
08:37PM 41.0789 -97.1194 75° East 163 188 5,100  Level Minneapolis Center
08:37PM 41.0675 -97.0981 125° Southeast 159 183 5,100  Level Minneapolis Center
08:38PM 41.0892 -97.0633 50° Northeast 158 182 5,100  Level Minneapolis Center
08:38PM 41.0806 -97.0333 111° Southeast 159 183 5,100  Level Minneapolis Center
08:39PM 41.0883 -96.9883 77° East 157 181 5,100  Level Minneapolis Center
08:40PM 41.1119 -96.9389 58° Northeast 157 181 5,100  Level Minneapolis Center
08:41PM 41.1247 -96.8719 76° East 157 181 5,100  Level Minneapolis Center
08:42PM 41.1356 -96.8139 76° East 158 182 5,100  Level Minneapolis Center
08:43PM 41.1356 -96.7569 90° East 157 181 5,100  Level Minneapolis Center
08:43PM 41.1456 -96.7581 355° North 158 182 5,100  Level Minneapolis Center
08:44PM 41.1469 -96.7003 88° East 158 182 5,100  Level Minneapolis Center
08:44PM 41.1583 -96.6908 32° Northeast 157 181 5,100  Level Minneapolis Center
08:45PM 41.1583 -96.6439 90° East 159 183 5,100  Level Minneapolis Center
08:45PM 41.1689 -96.6339 35° Northeast 158 182 5,100  Level Minneapolis Center
08:46PM 41.1694 -96.5872 89° East 158 182 5,100  Level Minneapolis Center
08:47PM 41.1811 -96.5656 54° Northeast 158 182 5,100  Level Minneapolis Center
08:47PM 41.1806 -96.5281 91° East 156 180 5,100 -300 Level Minneapolis Center
08:48PM 41.1914 -96.5094 52° Northeast 157 181 4,800 -600 Descending Minneapolis Center
08:48PM 41.1917 -96.4686 89° East 175 201 4,500 -420 Descending Minneapolis Center
08:49PM 41.2022 -96.4492 54° Northeast 161 185 4,400 -480 Descending Minneapolis Center
08:49PM 41.2028 -96.4150 89° East 172 198 4,100 -300 Descending Minneapolis Center
08:50PM 41.2133 -96.3875 63° Northeast 167 192 4,100  Level Minneapolis Center
08:50PM 41.2139 -96.3556 89° East 157 181 4,100  Level Minneapolis Center
08:51PM 41.2247 -96.3314 59° Northeast 164 189 4,100  Level Minneapolis Center
08:51PM 41.2269 -96.2961 85° East 153 176 4,100  Level Minneapolis Center
08:52PM 41.2339 -96.2781 63° Northeast 158 182 4,100  Level Minneapolis Center
08:52PM 41.2361 -96.2422 85° East 153 176 4,100  Level Minneapolis Center
08:53PM 41.2458 -96.2125 66° East 153 176 4,100  Level Minneapolis Center
08:53PM 41.2472 -96.1883 86° East 153 176 4,100  Level Minneapolis Center
08:54PM 41.2569 -96.1478 72° East 152 175 4,100  Level Minneapolis Center
08:54PM 41.2522 -96.1353 117° Southeast 146 168 4,100 -240 Level Minneapolis Center
08:55PM 41.2503 -96.0944 94° East 149 171 3,900 -420 Descending Minneapolis Center
08:55PM 41.2483 -96.0747 97° East 155 178 3,700 -540 Descending Minneapolis Center
08:56PM 41.2506 -96.0372 85° East 152 175 3,400 -300 Descending Minneapolis Center
08:56PM 41.2531 -96.0158 81° East 161 185 3,400 -420 Level Minneapolis Center
08:57PM 41.2569 -95.9797 82° East 156 180 3,000 -720 Descending Minneapolis Center
08:57PM 41.2636 -95.9536 71° East 164 189 2,600 -900 Descending Minneapolis Center
08:58PM 41.2706 -95.9108 78° East 161 185 2,100 -840 Descending Minneapolis Center
08:58PM 41.2789 -95.9019 39° Northeast 151 174 1,800 -900 Descending Minneapolis Center
08:59PM 41.2961 -95.8900 28° Northeast 141 162 1,200 -900 Descending Minneapolis Center
09:01PM 41.3000 -95.8833 North  Level FlightAware Approximate